Time;durP1;ratioP1;P1;durP2;ratioP2;P2;SDS_P1;SDS_P2;PMS_P1;PMS_P2;Temp;Humidity;BMP_temperature;BMP_pressure;BME280_temperature;BME280_humidity;BME280_pressure;Samples;Min_cycle;Max_cycle;Signal;HPM_P1;HPM_P2
2022/07/21 00:00:06;;;;;;;4.00;1.43;;;16.10;99.90;;;;;;5093859;28;20021;-84
2022/07/21 00:02:32;;;;;;;2.13;1.42;;;16.10;99.90;;;;;;5088757;28;20021;-84
2022/07/21 00:04:58;;;;;;;1.38;1.10;;;16.10;99.90;;;;;;5092782;28;20024;-84
2022/07/21 00:07:24;;;;;;;2.65;1.60;;;16.10;99.90;;;;;;5088005;28;20035;-82
2022/07/21 00:09:50;;;;;;;4.75;1.20;;;16.10;99.90;;;;;;5089455;28;20384;-84
2022/07/21 00:12:16;;;;;;;1.60;1.35;;;16.10;99.90;;;;;;5081099;28;20463;-80
2022/07/21 00:14:43;;;;;;;1.20;0.90;;;16.00;99.90;;;;;;5088678;28;20053;-78
2022/07/21 00:17:09;;;;;;;2.72;1.15;;;16.00;99.90;;;;;;5083943;28;20054;-80
2022/07/21 00:19:35;;;;;;;1.48;1.20;;;16.10;99.90;;;;;;5092233;28;20107;-80
2022/07/21 00:22:01;;;;;;;2.17;1.58;;;16.10;99.90;;;;;;5091605;28;20036;-79
2022/07/21 00:24:27;;;;;;;2.35;1.30;;;16.10;99.90;;;;;;5091217;28;20096;-80
2022/07/21 00:26:53;;;;;;;3.83;1.35;;;16.00;99.90;;;;;;5091658;28;20491;-80
2022/07/21 00:29:18;;;;;;;1.73;1.35;;;15.90;99.90;;;;;;5091480;28;20065;-81
2022/07/21 00:31:44;;;;;;;1.83;1.40;;;15.80;99.90;;;;;;5074391;28;20591;-81
2022/07/21 00:34:10;;;;;;;1.80;1.48;;;15.80;99.90;;;;;;5083639;28;20052;-81
2022/07/21 00:36:36;;;;;;;2.20;1.38;;;15.80;99.90;;;;;;5070853;28;20031;-81
2022/07/21 00:39:02;;;;;;;3.95;1.40;;;15.70;99.90;;;;;;5066605;28;20020;-81
2022/07/21 00:41:28;;;;;;;3.40;1.92;;;15.70;99.90;;;;;;5082053;28;20023;-81
2022/07/21 00:43:54;;;;;;;2.75;1.67;;;15.70;99.90;;;;;;5073341;28;20036;-80
2022/07/21 00:46:21;;;;;;;6.53;1.52;;;15.70;99.90;;;;;;5090450;28;20107;-81
2022/07/21 00:48:47;;;;;;;2.00;1.75;;;15.70;99.90;;;;;;5056844;28;20039;-80
2022/07/21 00:51:13;;;;;;;3.38;1.67;;;15.70;99.90;;;;;;5082763;28;20025;-80
2022/07/21 00:53:39;;;;;;;2.58;1.77;;;15.80;99.90;;;;;;5070134;28;20028;-79
2022/07/21 00:56:05;;;;;;;3.40;1.70;;;15.80;99.90;;;;;;5077420;28;20522;-80
2022/07/21 00:58:31;;;;;;;5.10;2.08;;;15.80;99.90;;;;;;5081466;28;20020;-78
2022/07/21 01:00:57;;;;;;;2.97;1.77;;;15.80;99.90;;;;;;5084666;28;20028;-80
2022/07/21 01:03:23;;;;;;;4.13;1.42;;;15.80;99.90;;;;;;5087411;28;20028;-80
2022/07/21 01:05:49;;;;;;;3.90;1.98;;;15.80;99.90;;;;;;5087957;28;20028;-80
2022/07/21 01:08:15;;;;;;;4.00;1.88;;;15.80;99.90;;;;;;5083382;28;20023;-80
2022/07/21 01:10:41;;;;;;;5.90;1.88;;;15.80;99.90;;;;;;5082899;28;20055;-80
2022/07/21 01:13:07;;;;;;;3.92;1.92;;;15.80;99.90;;;;;;5085759;28;20024;-80
2022/07/21 01:15:33;;;;;;;4.90;1.45;;;15.80;99.90;;;;;;5094785;28;20024;-79
2022/07/21 01:18:00;;;;;;;1.75;1.30;;;15.80;99.90;;;;;;5093741;28;20440;-80
2022/07/21 01:20:26;;;;;;;1.90;1.67;;;15.90;99.90;;;;;;5094820;28;20210;-82
2022/07/21 01:22:58;;;;;;;2.75;1.60;;;15.90;99.90;;;;;;5094605;28;20115;-81
2022/07/21 01:25:24;;;;;;;3.08;1.50;;;15.90;99.90;;;;;;5094456;28;20401;-79
2022/07/21 01:27:50;;;;;;;1.98;1.70;;;15.90;99.90;;;;;;5093450;28;20031;-80
2022/07/21 01:30:17;;;;;;;2.67;1.30;;;15.90;99.90;;;;;;5094445;28;20020;-80
2022/07/21 01:32:43;;;;;;;4.47;1.40;;;15.80;99.90;;;;;;5076330;28;20130;-80
2022/07/21 01:35:13;;;;;;;2.30;1.30;;;15.80;99.90;;;;;;5093413;28;20137;-81
2022/07/21 01:37:42;;;;;;;2.03;1.25;;;15.90;99.90;;;;;;5094512;28;20027;-81
2022/07/21 01:42:54;;;;;;;2.05;1.27;;;15.80;99.90;;;;;;5094440;28;20098;-80
2022/07/21 01:45:20;;;;;;;2.95;1.40;;;15.80;99.90;;;;;;5094513;28;20020;-79
2022/07/21 01:47:46;;;;;;;3.55;1.52;;;15.80;99.90;;;;;;5094516;28;20034;-79
2022/07/21 01:50:12;;;;;;;2.78;1.55;;;15.80;99.90;;;;;;5094237;28;20016;-79
2022/07/21 01:52:38;;;;;;;2.88;1.60;;;15.90;99.90;;;;;;5095532;28;20035;-79
2022/07/21 01:55:05;;;;;;;6.32;1.70;;;15.90;99.90;;;;;;5094027;28;20020;-80
2022/07/21 01:57:31;;;;;;;3.25;1.30;;;15.90;99.90;;;;;;5094386;28;20044;-79
2022/07/21 01:59:57;;;;;;;5.78;1.27;;;15.90;99.90;;;;;;5094257;28;20031;-79
2022/07/21 02:02:22;;;;;;;4.00;1.70;;;16.00;99.90;;;;;;5093956;28;20028;-80
2022/07/21 02:04:49;;;;;;;5.10;1.60;;;16.00;99.90;;;;;;5093391;28;20469;-80
2022/07/21 02:07:16;;;;;;;3.28;1.70;;;16.00;99.90;;;;;;5091985;28;20481;-79
2022/07/21 02:09:42;;;;;;;2.87;1.43;;;16.00;99.90;;;;;;5092690;28;20020;-79
2022/07/21 02:12:08;;;;;;;3.63;1.42;;;16.10;99.90;;;;;;5093795;28;20408;-80
2022/07/21 02:14:34;;;;;;;3.55;1.65;;;16.10;99.90;;;;;;5076164;28;20500;-80
2022/07/21 02:17:00;;;;;;;1.50;1.40;;;16.20;99.90;;;;;;5092960;28;20020;-80
2022/07/21 02:19:26;;;;;;;3.83;1.58;;;16.20;99.90;;;;;;5093944;28;20026;-79
2022/07/21 02:21:52;;;;;;;2.35;1.40;;;16.30;99.90;;;;;;5093864;28;20039;-80
2022/07/21 02:24:18;;;;;;;2.42;1.50;;;16.30;99.90;;;;;;5093638;28;20040;-80
2022/07/21 02:26:44;;;;;;;3.50;1.83;;;16.40;99.90;;;;;;5092499;28;20032;-79
2022/07/21 02:29:10;;;;;;;4.22;1.92;;;16.30;99.90;;;;;;5075362;28;20119;-79
2022/07/21 02:31:35;;;;;;;2.78;1.67;;;16.30;99.90;;;;;;5093568;28;20397;-79
2022/07/21 02:34:01;;;;;;;3.30;1.80;;;16.30;99.90;;;;;;5093534;28;20027;-81
2022/07/21 02:36:27;;;;;;;4.43;2.40;;;16.20;99.90;;;;;;5093643;28;20028;-81
2022/07/21 02:38:53;;;;;;;3.90;2.00;;;16.10;99.90;;;;;;5093617;28;20027;-80
2022/07/21 02:41:19;;;;;;;3.95;1.77;;;16.00;99.90;;;;;;5093409;28;20487;-81
2022/07/21 02:43:45;;;;;;;2.75;1.92;;;15.90;99.90;;;;;;5091635;28;20040;-80
2022/07/21 02:46:10;;;;;;;3.30;2.03;;;15.90;99.90;;;;;;5093204;28;20373;-80
2022/07/21 02:48:36;;;;;;;2.80;2.13;;;15.80;99.90;;;;;;5093265;28;20393;-80
2022/07/21 02:51:02;;;;;;;3.33;2.92;;;15.80;99.90;;;;;;5079307;28;20027;-81
2022/07/21 02:53:28;;;;;;;2.53;1.75;;;15.80;99.90;;;;;;5092942;28;20114;-81
2022/07/21 02:55:54;;;;;;;6.05;3.22;;;15.80;99.90;;;;;;5093483;28;20024;-81
2022/07/21 02:58:21;;;;;;;3.08;2.63;;;15.70;99.90;;;;;;5093134;28;20385;-80
2022/07/21 03:00:58;;;;;;;3.08;2.60;;;15.70;99.90;;;;;;5092084;28;20055;-79
2022/07/21 03:03:27;;;;;;;5.05;2.55;;;15.80;99.90;;;;;;5092753;28;20039;-81
2022/07/21 03:05:54;;;;;;;4.20;3.08;;;15.80;99.90;;;;;;5074778;28;20023;-80
2022/07/21 03:08:22;;;;;;;5.82;3.15;;;15.80;99.90;;;;;;5074353;28;20073;-79
2022/07/21 03:10:48;;;;;;;4.50;2.60;;;15.80;99.90;;;;;;5092810;28;20412;-81
2022/07/21 03:13:14;;;;;;;4.82;3.72;;;15.70;99.90;;;;;;5074860;28;20539;-80
2022/07/21 03:15:40;;;;;;;3.97;3.17;;;15.80;99.90;;;;;;5091797;28;20042;-80
2022/07/21 03:18:07;;;;;;;3.33;2.80;;;15.70;99.90;;;;;;5092996;28;20419;-80
2022/07/21 03:20:35;;;;;;;6.70;4.30;;;15.70;99.90;;;;;;5092831;28;20388;-81
2022/07/21 03:23:01;;;;;;;4.35;2.83;;;15.70;99.90;;;;;;5077002;28;20091;-80
2022/07/21 03:25:27;;;;;;;4.63;2.65;;;15.70;99.90;;;;;;5095169;28;20016;-79
2022/07/21 03:27:53;;;;;;;5.10;2.88;;;15.60;99.90;;;;;;5091760;28;20039;-80
2022/07/21 03:30:21;;;;;;;5.20;3.00;;;15.60;99.90;;;;;;5092909;28;20106;-79
2022/07/21 03:32:48;;;;;;;2.95;2.65;;;15.60;99.90;;;;;;5092205;28;20028;-80
2022/07/21 03:35:14;;;;;;;5.55;3.00;;;15.60;99.90;;;;;;5094014;28;20020;-80
2022/07/21 03:37:42;;;;;;;7.00;3.17;;;15.60;99.90;;;;;;5092201;28;20032;-80
2022/07/21 03:40:10;;;;;;;5.30;2.88;;;15.70;99.90;;;;;;5092414;28;20016;-80
2022/07/21 03:42:36;;;;;;;4.55;2.65;;;15.70;99.90;;;;;;5092730;28;20038;-81
2022/07/21 03:45:02;;;;;;;6.03;3.97;;;15.80;99.90;;;;;;5090429;28;20074;-81
2022/07/21 03:47:28;;;;;;;5.55;4.93;;;15.70;99.90;;;;;;5090782;28;20048;-81
2022/07/21 03:49:54;;;;;;;5.28;2.83;;;15.70;99.90;;;;;;5091730;28;20044;-81
2022/07/21 03:52:19;;;;;;;5.30;3.08;;;15.70;99.90;;;;;;5091031;28;20461;-81
2022/07/21 03:54:45;;;;;;;4.70;3.25;;;15.60;99.90;;;;;;5090248;28;20030;-81
2022/07/21 03:57:11;;;;;;;3.88;2.63;;;15.60;99.90;;;;;;5091054;28;20022;-81
2022/07/21 03:59:37;;;;;;;2.55;2.30;;;15.50;99.90;;;;;;5091273;28;20106;-81
2022/07/21 04:02:03;;;;;;;4.88;2.53;;;15.50;99.90;;;;;;5089396;28;20031;-81
2022/07/21 04:04:29;;;;;;;3.33;2.58;;;15.50;99.90;;;;;;5073153;28;20023;-79
2022/07/21 04:06:55;;;;;;;3.75;2.22;;;15.40;99.90;;;;;;5090649;28;20107;-81
2022/07/21 04:09:21;;;;;;;3.35;2.20;;;15.30;99.90;;;;;;5090947;28;20024;-80
2022/07/21 04:11:47;;;;;;;5.03;2.70;;;15.30;99.90;;;;;;5090194;28;20126;-79
2022/07/21 04:14:13;;;;;;;4.82;2.78;;;15.30;99.90;;;;;;5071010;28;20356;-81
2022/07/21 04:16:39;;;;;;;4.80;2.85;;;15.40;99.90;;;;;;5085219;28;20504;-81
2022/07/21 04:19:05;;;;;;;2.55;2.05;;;15.40;99.90;;;;;;5072371;28;20138;-82
2022/07/21 04:21:31;;;;;;;3.55;2.72;;;15.40;99.90;;;;;;5090298;28;20101;-83
2022/07/21 04:23:57;;;;;;;5.93;3.05;;;15.50;99.90;;;;;;5089870;28;20028;-80
2022/07/21 04:26:22;;;;;;;4.15;2.97;;;15.50;99.90;;;;;;5090641;28;20480;-81
2022/07/21 04:28:48;;;;;;;4.70;2.88;;;15.60;99.90;;;;;;5089587;28;20035;-82
2022/07/21 04:31:14;;;;;;;3.90;2.67;;;15.60;99.90;;;;;;5073354;28;20020;-81
2022/07/21 04:33:40;;;;;;;6.18;2.88;;;15.80;99.90;;;;;;5088107;28;20028;-81
2022/07/21 04:36:06;;;;;;;6.63;3.13;;;15.80;99.90;;;;;;5072273;28;20647;-81
2022/07/21 04:38:32;;;;;;;3.00;2.50;;;15.90;99.90;;;;;;5091585;28;20020;-80
2022/07/21 04:40:57;;;;;;;3.85;3.08;;;15.90;99.90;;;;;;5093881;28;20439;-81
2022/07/21 04:43:23;;;;;;;4.05;2.65;;;16.00;99.90;;;;;;5095414;28;20032;-80
2022/07/21 04:45:49;;;;;;;3.90;2.88;;;16.10;99.90;;;;;;5095524;28;20023;-81
2022/07/21 04:48:15;;;;;;;4.30;3.33;;;16.10;99.90;;;;;;5095434;28;20020;-80
2022/07/21 04:50:41;;;;;;;5.00;3.15;;;16.20;99.90;;;;;;5095386;28;20024;-81
2022/07/21 04:53:06;;;;;;;4.68;3.03;;;16.20;99.90;;;;;;5093944;28;20064;-81
2022/07/21 04:55:32;;;;;;;4.75;3.13;;;16.30;99.90;;;;;;5098635;28;20472;-81
2022/07/21 04:57:58;;;;;;;4.72;3.33;;;16.30;99.90;;;;;;5083114;28;20115;-81
2022/07/21 05:00:25;;;;;;;4.63;3.05;;;16.40;99.90;;;;;;5095322;28;20019;-83
2022/07/21 05:02:52;;;;;;;4.10;2.67;;;16.50;99.90;;;;;;5096532;28;20133;-81
2022/07/21 05:05:19;;;;;;;4.93;3.03;;;16.50;99.90;;;;;;5097704;28;20024;-83
2022/07/21 05:07:45;;;;;;;5.82;3.70;;;16.60;99.90;;;;;;5095425;28;20154;-82
2022/07/21 05:10:14;;;;;;;3.67;3.03;;;16.70;99.90;;;;;;5100139;28;20022;-82
2022/07/21 05:12:40;;;;;;;7.80;3.33;;;16.70;99.90;;;;;;5096539;28;20052;-82
2022/07/21 05:15:07;;;;;;;5.07;2.75;;;16.80;99.90;;;;;;5081163;28;20024;-82
2022/07/21 05:17:34;;;;;;;3.42;2.30;;;16.90;99.90;;;;;;5095419;28;20054;-82
2022/07/21 05:20:00;;;;;;;3.70;2.20;;;17.10;99.90;;;;;;5084632;28;20051;-80
2022/07/21 05:22:26;;;;;;;4.40;2.65;;;17.10;99.90;;;;;;5066470;28;20072;-82
2022/07/21 05:24:52;;;;;;;7.97;2.80;;;17.20;99.90;;;;;;5094795;28;20067;-82
2022/07/21 05:27:19;;;;;;;2.95;2.33;;;17.30;99.90;;;;;;5080807;28;20027;-80
2022/07/21 05:29:44;;;;;;;4.28;3.17;;;17.40;99.90;;;;;;5080258;28;20052;-81
2022/07/21 05:32:10;;;;;;;5.65;2.88;;;17.50;99.90;;;;;;5082729;28;20507;-80
2022/07/21 05:34:36;;;;;;;8.35;3.08;;;17.50;99.90;;;;;;5070423;28;20081;-82
2022/07/21 05:37:02;;;;;;;4.88;2.70;;;17.60;99.90;;;;;;5094965;28;20486;-81
2022/07/21 05:39:29;;;;;;;4.05;2.50;;;17.70;99.90;;;;;;5093358;28;20020;-82
2022/07/21 05:41:55;;;;;;;6.90;3.23;;;17.80;99.90;;;;;;5094600;28;20036;-80
2022/07/21 05:44:20;;;;;;;5.90;2.58;;;17.90;99.90;;;;;;5094291;28;20252;-82
2022/07/21 05:46:46;;;;;;;4.25;2.35;;;18.00;99.90;;;;;;5094590;28;20074;-82
2022/07/21 05:49:12;;;;;;;4.03;2.38;;;18.00;99.90;;;;;;5094978;28;20024;-82
2022/07/21 05:51:38;;;;;;;5.50;2.22;;;17.90;99.90;;;;;;5093385;28;20385;-82
2022/07/21 05:54:04;;;;;;;5.93;2.30;;;17.80;99.90;;;;;;5092314;28;20434;-82
2022/07/21 05:56:30;;;;;;;2.72;2.33;;;17.80;99.90;;;;;;5091165;28;20500;-83
2022/07/21 05:58:56;;;;;;;5.30;2.20;;;17.70;99.90;;;;;;5085690;28;20068;-82
2022/07/21 06:01:22;;;;;;;3.63;2.22;;;17.80;99.90;;;;;;5090409;28;20463;-83
2022/07/21 06:03:50;;;;;;;4.05;2.10;;;17.80;99.90;;;;;;5075534;28;20095;-83
2022/07/21 06:06:17;;;;;;;5.00;2.47;;;17.90;99.90;;;;;;5076077;28;20032;-81
2022/07/21 06:08:46;;;;;;;3.60;2.47;;;18.00;99.90;;;;;;5091169;28;20027;-82
2022/07/21 06:11:14;;;;;;;3.42;2.72;;;18.20;99.90;;;;;;5093991;28;20059;-83
2022/07/21 06:13:40;;;;;;;3.33;1.90;;;18.30;99.80;;;;;;5062518;28;20043;-83
2022/07/21 06:16:07;;;;;;;3.42;2.35;;;18.40;98.50;;;;;;5086337;28;20020;-83
2022/07/21 06:18:33;;;;;;;4.60;2.47;;;18.40;98.40;;;;;;5080411;28;20027;-82
2022/07/21 06:20:59;;;;;;;5.82;2.72;;;18.40;98.40;;;;;;5076150;28;20028;-83
2022/07/21 06:23:26;;;;;;;5.68;3.22;;;18.50;98.40;;;;;;5078231;28;20386;-81
2022/07/21 06:25:52;;;;;;;5.30;2.85;;;18.70;97.80;;;;;;5084692;28;20040;-81
2022/07/21 06:28:21;;;;;;;3.05;2.28;;;18.90;97.20;;;;;;5084205;28;20099;-83
2022/07/21 06:30:48;;;;;;;3.17;2.13;;;19.20;96.50;;;;;;5079152;28;20028;-82
2022/07/21 06:33:14;;;;;;;6.47;3.73;;;19.40;95.90;;;;;;5094683;28;20419;-81
2022/07/21 06:35:40;;;;;;;4.55;1.70;;;19.60;95.00;;;;;;5070997;28;20288;-82
2022/07/21 06:38:06;;;;;;;3.30;1.70;;;20.00;93.90;;;;;;5093509;28;20024;-82
2022/07/21 06:40:32;;;;;;;2.03;1.70;;;20.20;93.10;;;;;;5093541;28;20017;-83
2022/07/21 06:42:58;;;;;;;3.83;1.98;;;20.50;92.20;;;;;;5093033;28;20366;-84
2022/07/21 06:45:24;;;;;;;3.67;2.40;;;20.40;91.60;;;;;;5093598;28;20017;-81
2022/07/21 06:47:50;;;;;;;5.25;1.98;;;20.00;91.60;;;;;;5088176;28;20039;-82
2022/07/21 06:50:16;;;;;;;3.47;1.90;;;19.50;92.10;;;;;;5082193;28;20016;-82
2022/07/21 06:52:42;;;;;;;2.92;1.73;;;19.20;92.60;;;;;;5084778;28;20050;-82
2022/07/21 06:55:08;;;;;;;3.88;1.95;;;19.40;92.60;;;;;;5092926;28;20020;-82
2022/07/21 06:57:35;;;;;;;2.25;1.55;;;19.40;92.60;;;;;;5093270;28;20102;-82
2022/07/21 07:00:08;;;;;;;2.10;1.60;;;19.60;92.40;;;;;;5093411;28;20107;-83
2022/07/21 07:02:34;;;;;;;4.30;1.85;;;19.70;91.70;;;;;;5093149;28;20036;-83
2022/07/21 07:04:59;;;;;;;3.30;1.90;;;19.40;92.30;;;;;;5082936;28;20024;-82
2022/07/21 07:07:25;;;;;;;4.25;2.00;;;18.90;93.90;;;;;;5090520;28;20039;-82
2022/07/21 07:09:54;;;;;;;2.55;1.58;;;18.40;94.80;;;;;;5073162;28;20055;-84
2022/07/21 07:12:20;;;;;;;2.50;1.60;;;18.10;95.70;;;;;;5091908;28;20068;-82
2022/07/21 07:14:46;;;;;;;1.70;1.60;;;17.90;96.20;;;;;;5092492;28;20051;-83
2022/07/21 07:17:18;;;;;;;4.00;1.67;;;17.80;96.70;;;;;;5081853;28;20060;-84
2022/07/21 07:19:45;;;;;;;4.72;2.10;;;17.90;97.00;;;;;;5078627;28;20055;-82
2022/07/21 07:22:12;;;;;;;2.88;2.08;;;17.90;97.10;;;;;;5082231;28;20041;-85
2022/07/21 07:24:37;;;;;;;6.25;2.10;;;17.90;97.20;;;;;;5089752;28;20039;-80
2022/07/21 07:27:06;;;;;;;4.45;2.30;;;17.60;98.10;;;;;;5073483;28;20481;-84
2022/07/21 07:29:35;;;;;;;3.70;2.40;;;17.60;99.20;;;;;;5074914;28;20032;-83
2022/07/21 07:32:00;;;;;;;4.25;2.20;;;17.50;99.90;;;;;;5079929;28;20028;-85
2022/07/21 07:34:26;;;;;;;4.57;2.80;;;17.60;99.90;;;;;;5086850;28;20023;-84
2022/07/21 07:36:52;;;;;;;5.07;3.25;;;17.50;99.90;;;;;;5092918;28;20101;-84
2022/07/21 07:39:18;;;;;;;4.15;3.50;;;17.50;99.90;;;;;;5073984;28;20016;-84
2022/07/21 07:41:44;;;;;;;3.00;2.70;;;18.10;99.90;;;;;;5074788;28;20028;-86
2022/07/21 07:44:10;;;;;;;6.93;2.95;;;18.90;99.90;;;;;;5076422;28;20956;-84
2022/07/21 07:46:36;;;;;;;4.63;4.10;;;19.50;99.20;;;;;;5096128;28;20376;-83
2022/07/21 07:49:03;;;;;;;5.93;2.75;;;19.60;97.30;;;;;;5076756;28;20031;-84
2022/07/21 07:51:29;;;;;;;5.20;3.42;;;19.30;97.70;;;;;;5091362;28;20027;-85
2022/07/21 07:53:54;;;;;;;7.38;5.00;;;19.10;97.40;;;;;;5094807;28;20491;-84
2022/07/21 07:56:20;;;;;;;6.65;3.60;;;18.70;97.90;;;;;;5092640;28;20048;-84
2022/07/21 07:58:46;;;;;;;5.07;3.17;;;18.30;98.80;;;;;;5092926;28;20388;-82
2022/07/21 08:01:12;;;;;;;5.45;4.18;;;17.90;99.10;;;;;;5074226;28;20481;-84
2022/07/21 08:03:38;;;;;;;8.95;5.22;;;17.20;99.90;;;;;;5074485;28;20032;-84
2022/07/21 08:06:05;;;;;;;8.00;5.60;;;16.90;99.90;;;;;;5091085;28;20027;-83
2022/07/21 08:08:31;;;;;;;;;;;16.70;99.90;;;;;;5090842;28;20023;-84
2022/07/21 08:11:01;;;;;;;9.55;6.95;;;16.70;99.90;;;;;;5091402;28;19920;-84
2022/07/21 08:13:27;;;;;;;9.10;6.55;;;16.40;99.90;;;;;;5091816;28;20020;-83
2022/07/21 08:15:53;;;;;;;9.50;7.70;;;16.40;99.90;;;;;;5074229;28;20035;-84
2022/07/21 08:18:19;;;;;;;10.35;7.35;;;16.40;99.90;;;;;;5091214;28;20038;-85
2022/07/21 08:20:46;;;;;;;7.78;6.22;;;16.80;99.90;;;;;;5092723;28;20032;-83
2022/07/21 08:23:13;;;;;;;7.78;6.05;;;17.90;99.90;;;;;;5092171;28;20082;-84
2022/07/21 08:25:40;;;;;;;8.48;5.25;;;19.00;99.90;;;;;;5072204;28;20570;-83
2022/07/21 08:28:06;;;;;;;7.35;4.28;;;20.10;99.90;;;;;;5073921;28;20028;-84
2022/07/21 08:30:32;;;;;;;4.78;4.03;;;21.80;97.30;;;;;;5092644;28;20036;-85
2022/07/21 08:32:58;;;;;;;10.68;5.97;;;22.90;91.90;;;;;;5091807;28;20020;-85
2022/07/21 08:35:24;;;;;;;5.68;4.15;;;23.40;90.70;;;;;;5091557;28;20382;-86
2022/07/21 08:37:59;;;;;;;6.53;4.55;;;25.00;85.20;;;;;;5091379;28;20028;-85
2022/07/21 08:40:27;;;;;;;4.82;4.30;;;24.80;80.20;;;;;;5091103;28;20028;-83
2022/07/21 08:42:54;;;;;;;4.05;3.65;;;24.90;80.30;;;;;;5072629;28;20032;-83
2022/07/21 08:45:22;;;;;;;6.03;4.33;;;25.00;76.40;;;;;;5092051;28;20023;-83
2022/07/21 08:47:54;;;;;;;5.22;3.78;;;25.90;73.50;;;;;;5073673;28;20664;-82
2022/07/21 08:50:22;;;;;;;7.10;3.80;;;27.40;68.60;;;;;;5092013;28;20016;-83
2022/07/21 08:52:49;;;;;;;4.95;3.58;;;29.30;65.20;;;;;;5073522;28;20027;-84
2022/07/21 08:55:15;;;;;;;5.13;3.43;;;30.70;60.60;;;;;;5073782;28;20441;-83
2022/07/21 08:57:41;;;;;;;7.07;2.93;;;31.00;56.90;;;;;;5092406;28;20781;-84
2022/07/21 09:00:08;;;;;;;;;;;30.00;56.80;;;;;;5092308;28;20020;-84
2022/07/21 09:02:35;;;;;;;;;;;28.80;60.20;;;;;;5075917;28;19912;-84
2022/07/21 09:05:04;;;;;;;3.45;2.53;;;28.70;61.70;;;;;;5094001;28;19958;-83
2022/07/21 09:07:46;;;;;;;5.60;2.60;;;29.90;57.20;;;;;;5073956;28;20017;-84
2022/07/21 09:10:11;;;;;;;5.22;3.00;;;30.90;54.30;;;;;;5090332;28;20028;-83
2022/07/21 09:12:50;;;;;;;4.50;3.17;;;32.10;52.20;;;;;;5057303;28;20112;-83
2022/07/21 09:15:18;;;;;;;3.20;2.40;;;33.80;50.90;;;;;;5093510;28;20261;-82
2022/07/21 09:17:44;;;;;;;2.85;2.17;;;33.40;47.80;;;;;;5095875;28;20027;-82
2022/07/21 09:20:26;;;;;;;1.92;1.55;;;33.40;47.10;;;;;;5080563;28;20020;-86
2022/07/21 09:23:15;;;;;;;3.05;1.48;;;32.40;47.20;;;;;;5096489;28;20068;-84
2022/07/21 09:25:47;;;;;;;5.72;2.10;;;30.80;49.00;;;;;;5100761;28;20024;-84
2022/07/21 09:28:17;;;;;;;3.03;1.50;;;29.20;51.10;;;;;;5095041;28;20085;-82
2022/07/21 09:30:51;;;;;;;4.75;1.70;;;27.60;53.80;;;;;;5076965;28;20393;-83
2022/07/21 09:33:24;;;;;;;2.38;1.45;;;27.30;56.30;;;;;;5092085;28;20020;-84
2022/07/21 09:36:10;;;;;;;2.58;1.58;;;27.80;53.60;;;;;;5094727;28;20024;-83
2022/07/21 09:38:39;;;;;;;3.30;1.90;;;28.40;55.10;;;;;;5074927;28;20035;-84
2022/07/21 09:41:09;;;;;;;4.60;1.63;;;30.00;52.70;;;;;;5076765;28;20125;-84
2022/07/21 09:43:42;;;;;;;8.48;1.83;;;31.20;49.40;;;;;;5086493;28;20036;-84
2022/07/21 09:46:19;;;;;;;4.03;1.38;;;31.20;49.20;;;;;;5088887;28;20024;-85
2022/07/21 09:48:47;;;;;;;2.70;1.38;;;31.10;48.30;;;;;;5084168;28;20603;-84
2022/07/21 09:51:31;;;;;;;1.80;1.08;;;31.20;48.10;;;;;;5089288;28;20028;-84
2022/07/21 09:54:03;;;;;;;2.00;1.38;;;32.00;48.20;;;;;;5084489;28;20074;-84
2022/07/21 09:56:35;;;;;;;3.78;1.40;;;33.00;45.30;;;;;;5095754;28;20097;-84
2022/07/21 09:59:03;;;;;;;5.05;1.48;;;33.10;45.00;;;;;;5096648;28;20079;-82
2022/07/21 10:01:30;;;;;;;3.03;1.30;;;33.60;44.60;;;;;;5084274;28;20025;-84
2022/07/21 10:03:57;;;;;;;1.35;1.17;;;34.30;41.90;;;;;;5082691;28;20040;-84
2022/07/21 10:06:27;;;;;;;4.85;1.55;;;34.10;41.50;;;;;;5090907;28;20016;-84
2022/07/21 10:08:54;;;;;;;2.13;1.40;;;34.00;41.90;;;;;;5074758;28;20070;-85
2022/07/21 10:11:27;;;;;;;1.42;1.10;;;34.30;41.20;;;;;;5074456;28;20051;-84
2022/07/21 10:13:54;;;;;;;1.10;1.00;;;33.30;41.50;;;;;;5080521;28;20034;-84
2022/07/21 10:16:25;;;;;;;;;;;32.20;43.00;;;;;;5082608;28;20481;-83
2022/07/21 10:19:12;;;;;;;1.83;1.27;;;31.20;44.80;;;;;;5073057;28;19927;-84
2022/07/21 10:22:09;;;;;;;3.22;1.90;;;30.50;45.70;;;;;;5088339;28;20024;-83
2022/07/21 10:24:35;;;;;;;2.42;1.33;;;31.00;45.20;;;;;;5073987;28;20024;-87
2022/07/21 10:27:09;;;;;;;4.72;1.77;;;30.30;45.10;;;;;;5073517;28;20025;-83
2022/07/21 10:30:00;;;;;;;1.83;1.67;;;29.00;46.90;;;;;;5072200;28;20076;-83
2022/07/21 10:32:37;;;;;;;2.10;1.35;;;28.10;49.30;;;;;;5073610;28;20482;-83
2022/07/21 10:35:28;;;;;;;3.13;1.35;;;27.40;49.60;;;;;;5087771;28;20154;-84
2022/07/21 10:37:55;;;;;;;4.10;1.75;;;26.40;49.80;;;;;;5088837;28;20115;-86
2022/07/21 10:40:21;;;;;;;3.58;1.65;;;25.70;53.50;;;;;;5084063;28;20563;-84
2022/07/21 10:42:59;;;;;;;1.48;1.23;;;25.40;54.30;;;;;;5071902;28;20040;-85
2022/07/21 10:45:39;;;;;;;4.20;2.03;;;25.00;53.50;;;;;;5073457;28;20032;-84
2022/07/21 10:48:07;;;;;;;2.75;2.08;;;24.70;54.70;;;;;;5073183;28;20025;-83
2022/07/21 10:50:37;;;;;;;2.95;1.77;;;24.50;55.50;;;;;;5071929;28;20024;-83
2022/07/21 10:53:17;;;;;;;2.15;1.35;;;24.50;56.00;;;;;;5073027;28;20027;-85
2022/07/21 10:55:54;;;;;;;2.33;1.80;;;24.50;54.80;;;;;;5092032;28;20054;-84
2022/07/21 10:58:26;;;;;;;2.05;1.50;;;24.30;55.70;;;;;;5075151;28;20029;-85
2022/07/21 11:00:54;;;;;;;5.22;1.80;;;24.00;56.30;;;;;;5073056;28;20024;-83
2022/07/21 11:03:23;;;;;;;6.70;2.55;;;23.70;57.90;;;;;;5072690;28;20067;-84
2022/07/21 11:06:22;;;;;;;4.35;2.00;;;23.30;59.60;;;;;;5079299;28;20493;-84
2022/07/21 11:09:11;;;;;;;2.08;1.90;;;23.10;60.30;;;;;;5072924;28;20025;-83
2022/07/21 11:12:00;;;;;;;2.85;2.08;;;22.80;61.20;;;;;;5073207;28;20049;-86
2022/07/21 11:14:39;;;;;;;3.13;1.95;;;22.50;61.70;;;;;;5073413;28;20033;-84
2022/07/21 11:17:06;;;;;;;3.67;1.95;;;22.30;63.10;;;;;;5072847;28;20068;-84
2022/07/21 11:19:38;;;;;;;3.90;2.10;;;22.20;64.70;;;;;;5075779;28;20024;-84
2022/07/21 11:22:11;;;;;;;6.38;2.10;;;22.30;65.40;;;;;;5089041;28;20025;-83
2022/07/21 11:24:38;;;;;;;3.00;1.70;;;22.50;65.20;;;;;;5072622;28;20029;-84
2022/07/21 11:27:06;;;;;;;2.80;2.30;;;22.50;66.40;;;;;;5082028;28;20431;-83
2022/07/21 11:29:34;;;;;;;2.90;1.80;;;22.20;67.20;;;;;;5072736;28;20464;-83
2022/07/21 11:32:03;;;;;;;2.15;1.83;;;22.20;67.80;;;;;;5072463;28;20028;-85
2022/07/21 11:34:41;;;;;;;3.78;1.98;;;22.30;67.60;;;;;;5086390;28;20020;-85
2022/07/21 11:37:08;;;;;;;5.00;1.83;;;22.30;67.80;;;;;;5092824;28;20032;-84
2022/07/21 11:39:35;;;;;;;3.13;1.70;;;22.40;67.90;;;;;;5089646;28;20384;-82
2022/07/21 11:42:10;;;;;;;3.23;2.07;;;22.50;67.30;;;;;;5076891;28;20507;-83
2022/07/21 11:44:36;;;;;;;4.68;2.00;;;22.80;66.10;;;;;;5075430;28;20261;-84
2022/07/21 11:47:05;;;;;;;6.07;2.05;;;22.90;64.80;;;;;;5071005;28;20070;-83
2022/07/21 11:49:31;;;;;;;6.47;2.22;;;22.80;64.10;;;;;;5072019;28;20028;-84
2022/07/21 11:52:03;;;;;;;4.22;2.05;;;22.80;65.00;;;;;;5088706;28;20031;-82
2022/07/21 11:54:42;;;;;;;4.40;2.00;;;22.70;64.10;;;;;;5078184;28;20058;-82
2022/07/21 11:57:09;;;;;;;4.07;2.05;;;22.60;64.70;;;;;;5093453;28;20016;-84
2022/07/21 11:59:42;;;;;;;3.42;1.95;;;22.50;65.50;;;;;;5066163;28;20036;-84
2022/07/21 12:02:12;;;;;;;5.57;2.20;;;22.70;65.60;;;;;;5092028;28;20028;-83
2022/07/21 12:04:43;;;;;;;3.15;2.08;;;23.00;65.30;;;;;;5092245;28;20074;-84
2022/07/21 12:07:20;;;;;;;4.28;2.10;;;22.90;65.60;;;;;;5073818;28;20024;-83
2022/07/21 12:09:51;;;;;;;4.68;1.83;;;22.90;65.00;;;;;;5092616;28;20450;-85
2022/07/21 12:12:31;;;;;;;4.10;1.90;;;22.80;63.60;;;;;;5079351;28;20101;-82
2022/07/21 12:14:58;;;;;;;2.28;1.60;;;22.60;64.70;;;;;;5092318;28;20027;-84
2022/07/21 12:17:38;;;;;;;4.70;2.35;;;22.50;65.70;;;;;;5095032;28;20017;-81
2022/07/21 12:20:05;;;;;;;5.40;2.10;;;22.50;65.80;;;;;;5075568;28;20435;-84
2022/07/21 12:22:35;;;;;;;;;;;22.30;66.00;;;;;;5081033;28;20028;-84
2022/07/21 12:25:02;;;;;;;5.05;2.20;;;22.10;66.30;;;;;;5097217;28;19908;-84
2022/07/21 12:27:27;;;;;;;4.03;2.20;;;22.10;67.20;;;;;;5094493;28;20019;-83
2022/07/21 12:29:53;;;;;;;4.75;2.13;;;22.10;67.20;;;;;;5098781;28;20389;-81
2022/07/21 12:32:48;;;;;;;2.83;1.80;;;22.20;66.80;;;;;;5092476;28;20038;-83
2022/07/21 12:35:23;;;;;;;5.50;1.95;;;22.10;66.10;;;;;;5085674;28;20020;-83
2022/07/21 12:37:58;;;;;;;5.20;2.13;;;22.00;66.80;;;;;;5091798;28;20028;-85
2022/07/21 12:40:25;;;;;;;6.00;2.38;;;21.90;66.90;;;;;;5092666;28;20036;-83
2022/07/21 12:43:02;;;;;;;;;;;21.90;67.50;;;;;;5074207;28;20413;-82
2022/07/21 12:45:28;;;;;;;1.75;1.55;;;21.90;67.00;;;;;;5092017;28;19995;-83
2022/07/21 12:48:10;;;;;;;4.30;1.92;;;21.80;67.50;;;;;;5090709;28;20119;-83
2022/07/21 12:50:39;;;;;;;3.60;2.20;;;21.60;68.30;;;;;;5070669;28;20060;-83
2022/07/21 12:53:13;;;;;;;5.13;1.80;;;21.50;69.10;;;;;;5090528;28;20024;-84
2022/07/21 12:55:39;;;;;;;5.28;2.05;;;21.40;69.50;;;;;;5094329;28;20473;-84